createdAt,value
2022-08-01T05:30:25.563Z,29.40
2022-08-01T05:32:54.975Z,29.40
2022-08-01T05:35:48.897Z,29.60
2022-08-01T05:38:16.401Z,29.70
2022-08-01T05:40:45.878Z,29.80
2022-08-01T05:43:15.253Z,29.90
2022-08-01T05:45:44.700Z,30.10
2022-08-01T05:48:14.268Z,30.20
2022-08-01T05:50:43.699Z,30.30
2022-08-01T05:53:13.073Z,30.30
2022-08-01T05:55:42.208Z,30.40
2022-08-01T05:58:12.408Z,30.40
2022-08-01T06:00:42.508Z,30.30
2022-08-01T06:03:13.410Z,30.20
2022-08-01T06:05:42.617Z,30.10
2022-08-01T06:08:11.779Z,30.00
2022-08-01T06:10:40.896Z,30.00
2022-08-01T06:13:10.315Z,30.00
2022-08-01T06:21:03.291Z,30.30
2022-08-01T06:23:33.073Z,30.40
2022-08-01T06:26:02.533Z,30.70
2022-08-01T06:28:32.280Z,31.00
2022-08-01T06:31:01.777Z,31.20
2022-08-01T06:33:31.461Z,31.60
2022-08-01T06:36:00.843Z,31.70
2022-08-01T06:38:30.127Z,32.00
2022-08-01T06:40:59.611Z,32.30
2022-08-01T06:43:28.986Z,32.50
2022-08-01T06:45:58.411Z,32.70
2022-08-01T06:48:28.582Z,32.90
2022-08-01T06:51:09.836Z,33.00
2022-08-01T06:53:40.596Z,33.10
2022-08-01T06:56:13.633Z,33.30
2022-08-01T06:58:43.217Z,33.50
2022-08-01T07:01:13.285Z,33.60
2022-08-01T07:03:52.843Z,33.80
2022-08-01T07:06:28.511Z,33.80
2022-08-01T07:09:00.344Z,33.90
2022-08-01T07:11:33.883Z,33.90
2022-08-01T07:14:03.306Z,33.90
2022-08-01T07:16:32.741Z,33.80
2022-08-01T07:19:02.073Z,33.70
2022-08-01T07:21:40.308Z,33.50
2022-08-01T07:24:16.273Z,33.30
2022-08-01T07:26:53.692Z,33.20
2022-08-01T07:29:30.095Z,33.10
2022-08-01T07:32:00.543Z,32.90
2022-08-01T07:34:29.936Z,32.80
2022-08-01T07:36:59.246Z,32.70
2022-08-01T07:39:28.576Z,32.40
2022-08-01T07:42:07.481Z,32.30
2022-08-01T07:44:38.388Z,32.20
2022-08-01T07:47:08.218Z,32.20
2022-08-01T07:49:40.604Z,32.10
2022-08-01T07:52:10.914Z,32.00
2022-08-01T07:54:40.394Z,31.90
2022-08-01T07:57:09.780Z,31.90
2022-08-01T07:59:39.143Z,31.90
2022-08-01T08:02:08.696Z,31.90
2022-08-01T08:04:38.322Z,31.90
2022-08-01T08:07:07.891Z,32.00
2022-08-01T08:12:28.996Z,31.90
2022-08-01T08:15:03.427Z,31.90
2022-08-01T08:17:36.373Z,31.90
2022-08-01T08:20:09.157Z,31.90
2022-08-01T08:22:39.018Z,31.90
2022-08-01T08:25:09.361Z,31.90
2022-08-01T08:27:39.131Z,31.90
2022-08-01T08:30:13.216Z,31.70
2022-08-01T08:32:42.952Z,31.70
2022-08-01T08:35:13.186Z,31.60
2022-08-01T08:37:47.540Z,31.60
2022-08-01T08:40:18.042Z,31.60
2022-08-01T08:42:48.536Z,31.60
2022-08-01T08:45:17.747Z,31.50
2022-08-01T08:47:48.754Z,31.50
2022-08-01T08:50:18.260Z,31.50
2022-08-01T08:52:50.332Z,31.40
2022-08-01T08:55:20.525Z,31.50
2022-08-01T08:57:50.487Z,31.50
2022-08-01T09:00:20.180Z,31.60
2022-08-01T09:02:57.592Z,31.60
2022-08-01T09:05:38.603Z,31.60
2022-08-01T09:08:11.806Z,31.50
2022-08-01T09:10:41.929Z,31.50
2022-08-01T09:13:15.023Z,31.40
2022-08-01T09:15:48.506Z,31.40
2022-08-01T09:18:32.599Z,31.40
2022-08-01T09:21:07.815Z,31.30
2022-08-01T09:23:54.080Z,31.30
2022-08-01T09:26:38.746Z,31.40
2022-08-01T09:29:37.162Z,31.40
2022-08-01T09:32:14.079Z,31.40
2022-08-01T09:34:46.005Z,31.40
2022-08-01T09:37:24.125Z,31.40
2022-08-01T09:40:00.241Z,31.30
2022-08-01T09:42:30.626Z,31.30
2022-08-01T09:45:00.036Z,31.30
2022-08-01T09:47:41.110Z,31.30
2022-08-01T09:50:11.576Z,31.30
2022-08-01T09:52:41.444Z,31.30
2022-08-01T09:55:11.852Z,31.30
2022-08-01T09:57:42.421Z,31.20
2022-08-01T10:00:43.719Z,31.10
2022-08-01T10:03:28.568Z,31.10
2022-08-01T10:05:59.368Z,31.10
2022-08-01T10:08:29.511Z,31.10
2022-08-01T10:11:14.203Z,31.10
2022-08-01T10:13:46.377Z,31.10
2022-08-01T10:16:18.983Z,31.00
2022-08-01T10:18:50.383Z,31.00
2022-08-01T10:21:56.471Z,31.00
2022-08-01T10:24:14.520Z,30.90
2022-08-01T10:26:45.749Z,30.90
2022-08-01T10:29:46.389Z,30.90
2022-08-01T10:32:07.195Z,30.80
2022-08-01T10:34:38.049Z,30.80
2022-08-01T10:37:10.528Z,30.80
2022-08-01T10:39:41.825Z,30.70
2022-08-01T10:42:15.554Z,30.70
2022-08-01T10:44:49.014Z,30.60
2022-08-01T10:47:26.928Z,30.60
2022-08-01T10:50:32.767Z,30.60
2022-08-01T10:53:16.658Z,30.50
2022-08-01T10:56:03.106Z,30.50
2022-08-01T10:58:42.798Z,30.40
2022-08-01T11:01:25.918Z,30.40
2022-08-01T11:04:01.155Z,30.30
2022-08-01T11:06:36.788Z,30.30
2022-08-01T11:09:18.343Z,30.30
2022-08-01T11:12:23.630Z,30.20
2022-08-01T11:15:03.623Z,30.20
2022-08-01T11:17:46.350Z,30.10
2022-08-01T11:20:26.597Z,30.10
2022-08-01T11:23:03.437Z,30.00
2022-08-01T11:26:04.555Z,30.00
2022-08-01T11:28:34.776Z,29.90
2022-08-01T11:31:13.664Z,29.90
2022-08-01T11:33:47.231Z,29.90
2022-08-01T11:36:27.882Z,29.90
2022-08-01T11:39:13.529Z,29.80
2022-08-01T11:41:45.095Z,29.70
2022-08-01T11:44:16.063Z,29.70
2022-08-01T11:47:10.589Z,29.70
2022-08-01T11:49:49.338Z,29.70
2022-08-01T11:52:30.982Z,29.60
2022-08-01T11:55:12.067Z,29.60
2022-08-01T11:57:46.162Z,29.50
2022-08-01T12:00:22.266Z,29.50
2022-08-01T12:03:09.783Z,29.40
2022-08-01T12:05:43.382Z,29.40
2022-08-01T12:08:12.306Z,29.40
2022-08-01T12:10:49.416Z,29.30
2022-08-01T12:13:20.134Z,29.30
2022-08-01T12:15:53.414Z,29.30
2022-08-01T12:18:25.711Z,29.20
2022-08-01T12:21:05.065Z,29.20
2022-08-01T12:23:34.428Z,29.20
2022-08-01T12:26:06.101Z,29.10
2022-08-01T12:28:42.813Z,29.00
2022-08-01T12:31:12.797Z,29.00
2022-08-01T12:33:42.334Z,28.90
2022-08-01T12:36:14.773Z,28.90
2022-08-01T12:38:44.330Z,28.90
2022-08-01T12:41:13.893Z,28.80
2022-08-01T12:43:43.578Z,28.80
2022-08-01T12:46:18.129Z,28.80
2022-08-01T12:48:47.921Z,28.70
2022-08-01T12:51:17.622Z,28.70
2022-08-01T12:53:47.838Z,28.70
2022-08-01T12:56:17.521Z,28.60
2022-08-01T12:58:46.935Z,28.60
2022-08-01T13:01:16.439Z,28.60
2022-08-01T13:04:01.901Z,28.60
2022-08-01T13:06:34.873Z,28.50
2022-08-01T13:09:13.643Z,28.50
2022-08-01T13:12:03.819Z,28.50
2022-08-01T13:14:33.417Z,28.50
2022-08-01T13:17:02.870Z,28.40
2022-08-01T13:19:51.385Z,28.40
2022-08-01T13:22:20.516Z,28.40
2022-08-01T13:24:49.859Z,28.30
2022-08-01T13:27:32.076Z,28.30
2022-08-01T13:30:13.013Z,28.30
2022-08-01T13:32:44.525Z,28.30
2022-08-01T13:35:16.606Z,28.20
2022-08-01T13:37:45.787Z,28.20
2022-08-01T13:40:25.548Z,28.20
2022-08-01T13:42:55.693Z,28.20
2022-08-01T13:45:26.570Z,28.20
2022-08-01T13:48:11.980Z,28.20
2022-08-01T13:50:41.959Z,28.10
2022-08-01T13:53:11.833Z,28.10
2022-08-01T13:55:41.319Z,28.10
2022-08-01T13:58:10.568Z,28.10
2022-08-01T14:00:39.813Z,28.00
2022-08-01T14:03:09.593Z,28.00
2022-08-01T14:05:39.400Z,28.00
2022-08-01T14:08:08.803Z,28.00
2022-08-01T14:10:40.039Z,28.00
2022-08-01T14:13:11.824Z,28.00
2022-08-01T14:15:42.351Z,28.00
2022-08-01T14:18:12.955Z,28.00
2022-08-01T14:20:42.170Z,28.00
2022-08-01T14:23:12.108Z,28.00
2022-08-01T14:26:03.618Z,28.00
2022-08-01T14:28:32.765Z,28.00
2022-08-01T14:31:02.891Z,28.00
2022-08-01T14:33:34.445Z,28.00
2022-08-01T14:36:20.752Z,28.00
2022-08-01T14:38:53.622Z,28.00
2022-08-01T14:41:22.992Z,28.00
2022-08-01T14:43:52.328Z,27.90
2022-08-01T14:46:21.887Z,27.90
2022-08-01T14:48:51.351Z,27.90
2022-08-01T14:51:20.762Z,27.90
2022-08-01T14:53:50.823Z,27.90
2022-08-01T14:56:20.734Z,27.90
2022-08-01T14:58:50.117Z,27.80
2022-08-01T15:01:20.059Z,27.80
2022-08-01T15:03:50.129Z,27.80
2022-08-01T15:06:20.319Z,27.80
2022-08-01T15:08:49.837Z,27.80
2022-08-01T15:11:19.202Z,27.80
2022-08-01T15:14:08.288Z,27.70
2022-08-01T15:16:37.877Z,27.70
2022-08-01T15:19:07.328Z,27.70
2022-08-01T15:21:43.378Z,27.70
2022-08-01T15:24:12.817Z,27.70
2022-08-01T15:26:42.227Z,27.60
2022-08-01T15:29:11.518Z,27.60
2022-08-01T15:31:40.859Z,27.60
2022-08-01T15:34:10.357Z,27.60
2022-08-01T15:36:43.531Z,27.60
2022-08-01T15:39:13.664Z,27.50
2022-08-01T15:41:42.717Z,27.50
2022-08-01T15:44:11.796Z,27.50
2022-08-01T15:46:40.890Z,27.50
2022-08-01T15:49:10.174Z,27.50
2022-08-01T15:51:39.323Z,27.40
2022-08-01T15:54:11.598Z,27.40
2022-08-01T15:56:43.894Z,27.40
2022-08-01T15:59:13.243Z,27.40
2022-08-01T16:01:42.884Z,27.40
2022-08-01T16:04:12.197Z,27.40
2022-08-01T16:06:41.336Z,27.40
2022-08-01T16:09:19.207Z,27.40
2022-08-01T16:11:50.968Z,27.40
2022-08-01T16:14:22.510Z,27.40
2022-08-01T16:16:51.633Z,27.40
2022-08-01T16:19:20.757Z,27.50
2022-08-01T16:21:50.009Z,27.40
2022-08-01T16:24:19.613Z,27.40
2022-08-01T16:26:48.808Z,27.40
2022-08-01T16:29:17.902Z,27.40
2022-08-01T16:32:02.351Z,27.40
2022-08-01T16:34:36.182Z,27.40
2022-08-01T16:37:06.395Z,27.40
2022-08-01T16:39:36.914Z,27.40
2022-08-01T16:42:06.703Z,27.30
2022-08-01T16:44:36.178Z,27.30
2022-08-01T16:47:07.009Z,27.30
2022-08-01T16:49:38.541Z,27.30
2022-08-01T16:52:08.604Z,27.30
2022-08-01T16:54:37.982Z,27.30
2022-08-01T16:57:08.443Z,27.20
2022-08-01T16:59:41.246Z,27.10
2022-08-01T17:02:12.495Z,27.20
2022-08-01T17:04:41.709Z,27.10
2022-08-01T17:07:11.134Z,27.10
2022-08-01T17:09:43.505Z,27.10
2022-08-01T17:12:22.542Z,27.00
2022-08-01T17:14:52.652Z,27.00
2022-08-01T17:17:22.065Z,27.00
2022-08-01T17:19:52.132Z,27.00
2022-08-01T17:22:21.437Z,26.90
2022-08-01T17:24:52.261Z,26.90
2022-08-01T17:27:21.871Z,26.80
2022-08-01T17:29:51.059Z,26.80
2022-08-01T17:32:20.185Z,26.80
2022-08-01T17:34:49.388Z,26.80
2022-08-01T17:37:18.643Z,26.80
2022-08-01T17:39:47.754Z,26.70
2022-08-01T17:42:16.880Z,26.70
2022-08-01T17:44:49.102Z,26.70
2022-08-01T17:47:41.274Z,26.60
2022-08-01T17:50:13.948Z,26.50
2022-08-01T17:52:43.114Z,26.50
2022-08-01T17:55:53.406Z,26.50
2022-08-01T17:58:01.533Z,26.50
2022-08-01T18:00:30.777Z,26.50
2022-08-01T18:02:59.845Z,26.50
2022-08-01T18:05:36.986Z,26.40
2022-08-01T18:08:08.603Z,26.40
2022-08-01T18:10:39.889Z,26.40
2022-08-01T18:13:09.319Z,26.30
2022-08-01T18:15:39.035Z,26.30
2022-08-01T18:18:08.417Z,26.30
2022-08-01T18:20:37.917Z,26.30
2022-08-01T18:23:11.019Z,26.30
2022-08-01T18:25:40.746Z,26.30
2022-08-01T18:28:16.284Z,26.30
2022-08-01T18:30:59.230Z,26.20
2022-08-01T18:33:28.311Z,26.20
2022-08-01T18:36:01.831Z,26.20
2022-08-01T18:38:35.213Z,26.10
2022-08-01T18:41:11.206Z,26.10
2022-08-01T18:43:40.396Z,26.10
2022-08-01T18:46:11.033Z,26.10
2022-08-01T18:48:40.146Z,26.10
2022-08-01T18:51:11.585Z,26.00
2022-08-01T18:53:42.869Z,26.00
2022-08-01T18:56:16.240Z,26.00
2022-08-01T18:58:45.375Z,26.00
2022-08-01T19:01:15.261Z,26.00
2022-08-01T19:03:44.391Z,26.00
2022-08-01T19:06:13.805Z,26.00
2022-08-01T19:08:43.162Z,26.00
2022-08-01T19:11:12.453Z,26.00
2022-08-01T19:13:41.627Z,25.90
2022-08-01T19:16:10.736Z,25.90
2022-08-01T19:18:42.140Z,26.00
2022-08-01T19:21:11.493Z,25.90
2022-08-01T19:23:59.082Z,25.90
2022-08-01T19:26:29.621Z,25.90
2022-08-01T19:29:03.193Z,25.90
2022-08-01T19:31:32.536Z,25.90
2022-08-01T19:34:02.325Z,25.90
2022-08-01T19:36:31.775Z,25.90
2022-08-01T19:39:02.952Z,25.90
2022-08-01T19:41:34.050Z,26.00
2022-08-01T19:44:08.278Z,25.90
2022-08-01T19:46:40.240Z,25.90
2022-08-01T19:49:09.982Z,25.90
2022-08-01T19:51:43.287Z,25.90
2022-08-01T19:54:13.892Z,25.90
2022-08-01T19:56:46.657Z,25.90
2022-08-01T19:59:21.434Z,25.90
2022-08-01T20:01:53.646Z,25.90
2022-08-01T20:04:24.270Z,25.80
2022-08-01T20:06:54.226Z,25.90
2022-08-01T20:09:24.002Z,25.90
2022-08-01T20:11:55.630Z,25.80
2022-08-01T20:14:28.955Z,25.80
2022-08-01T20:16:58.630Z,25.80
2022-08-01T20:19:28.530Z,25.80
2022-08-01T20:22:04.363Z,25.80
2022-08-01T20:24:50.983Z,25.80
2022-08-01T20:27:21.267Z,25.80
2022-08-01T20:29:52.629Z,25.80
2022-08-01T20:32:24.631Z,25.80
2022-08-01T20:34:53.958Z,25.80
2022-08-01T20:38:03.476Z,25.80
2022-08-01T20:40:13.877Z,25.80
2022-08-01T20:42:44.651Z,25.80
2022-08-01T20:45:18.338Z,25.80
2022-08-01T20:47:48.785Z,25.80
2022-08-01T20:50:54.203Z,25.80
2022-08-01T20:53:25.529Z,25.80
2022-08-01T20:56:05.986Z,25.80
2022-08-01T20:58:49.900Z,25.80
2022-08-01T21:01:26.402Z,25.80
2022-08-01T21:04:34.445Z,25.80
2022-08-01T21:07:28.249Z,25.80
2022-08-01T21:10:05.900Z,25.80
2022-08-01T21:13:00.899Z,25.80
2022-08-01T21:15:34.225Z,25.80
2022-08-01T21:18:05.548Z,25.80
2022-08-01T21:20:36.900Z,25.80
2022-08-01T21:23:33.702Z,25.80
2022-08-01T21:26:03.386Z,25.80
2022-08-01T21:28:36.696Z,25.80
2022-08-01T21:31:06.231Z,25.80
2022-08-01T21:33:38.824Z,25.80
2022-08-01T21:36:29.496Z,25.80
2022-08-01T21:39:00.421Z,25.80
2022-08-01T21:42:04.654Z,25.80
2022-08-01T21:44:21.519Z,25.80
2022-08-01T21:46:51.179Z,25.80
2022-08-01T21:49:20.337Z,25.80
2022-08-01T21:52:16.418Z,25.80
2022-08-01T21:55:05.273Z,25.80
2022-08-01T21:58:09.438Z,25.80
2022-08-01T22:00:41.916Z,25.80
2022-08-01T22:03:38.538Z,25.90
2022-08-01T22:06:08.578Z,25.80
2022-08-01T22:08:44.290Z,25.90
2022-08-01T22:11:18.004Z,25.90
2022-08-01T22:13:47.505Z,25.80
2022-08-01T22:16:17.524Z,25.80
2022-08-01T22:18:47.476Z,25.80
2022-08-01T22:21:18.562Z,25.80
2022-08-01T22:23:48.775Z,25.80
2022-08-01T22:26:18.475Z,25.80
2022-08-01T22:28:52.127Z,25.80
2022-08-01T22:31:22.469Z,25.80
2022-08-01T22:33:52.089Z,25.80
2022-08-01T22:36:22.772Z,25.80
2022-08-01T22:38:52.178Z,25.80
2022-08-01T22:41:27.291Z,25.80
2022-08-01T22:44:14.189Z,25.80
2022-08-01T22:46:48.433Z,25.80
2022-08-01T22:49:37.166Z,25.80
2022-08-01T22:52:21.793Z,25.80
2022-08-01T22:54:53.292Z,25.80
2022-08-01T22:57:47.283Z,25.80
2022-08-01T23:00:19.492Z,25.80
2022-08-01T23:02:55.744Z,25.80
2022-08-01T23:05:26.690Z,25.80
2022-08-01T23:07:58.491Z,25.80
2022-08-01T23:10:28.682Z,25.80
2022-08-01T23:12:58.241Z,25.90
2022-08-01T23:15:28.942Z,25.80
2022-08-01T23:17:59.608Z,25.80
2022-08-01T23:20:29.386Z,25.90
2022-08-01T23:22:58.967Z,25.90
2022-08-01T23:25:30.595Z,25.90
2022-08-01T23:28:05.068Z,25.90
2022-08-01T23:30:37.302Z,25.90
2022-08-01T23:33:06.550Z,25.90
2022-08-01T23:35:38.941Z,25.90
2022-08-01T23:38:09.030Z,25.90
2022-08-01T23:40:39.201Z,26.00
2022-08-01T23:43:17.468Z,26.00
2022-08-01T23:46:02.603Z,26.00
2022-08-01T23:48:34.888Z,26.00
2022-08-01T23:51:05.626Z,26.00
2022-08-01T23:53:38.325Z,26.00
2022-08-01T23:56:08.035Z,26.10
2022-08-01T23:58:37.126Z,26.10
